Avioradar koristi kolačiće da bi Vam omogućio jednostavnije i ugodnije korištenje stranice. 

AVIORADAR - Hrvatski zrakoplovni portal

VIDEO - INCIDENT: Zrakoplov se nije zaustavio na stazi nakon slijetanja

Piše: Nenad Sredojević.

© Flightradar24 screenshot
Frontier


Na zračnoj luci "Ronald Reagan National" u Washingtonu (KDCA/DCA), oko 04:15 po hrvatskom vremenu (02:15Z) dogodio se incident zrakoplova Airbus A320-214 reg. N213FR proizvedenog 2011. godine. 

Zrakoplov američkog prijevoznika Frontier na letu FFT538/F9538 iz Denvera (KDEN/DEN) za Washington se, prema dostupnim informacijama,  nakon slijetanja na uzletno sletnu stazu 01, nije uspio zaustaviti na stazi te je produžio izvan nje. 

Za sad nema informacija o ozlijeđenima kao ni o nastaloj šteti i uzrocima ovog incidenta. 

Odlazni promet je bio obustavljen na malo više od jednog sata, dok se dolazni preusmjeravao na obližnje zračne luke.

METAR INFO: 

KDCA 050252Z 18005KT 10SM FEW110 23/20 A3000 RMK AO2 SLP158 T02280200 51024
KDCA 050152Z 19006KT 10SM FEW080 FEW110 23/19 A2998 RMK AO2 SLP151 T02330194

UPDATE 05:45 CET: Prema izvješćima medija, nema ozlijeđenih u incidentu
UPDATE 06:00 CET: Objavljen je video koji su snimili putnici na kojem se vidi da su hitne službe kraj zrakoplova, no kod putnika se ne primjećuje panika.